sensor_id;sensor_type;location;lat;lon;timestamp;pressure;altitude;pressure_sealevel;temperature;humidity
77235;BME280;66253;50.526;14.974;2023-04-06T00:02:15;99595.63;;;-2.50;74.31
77235;BME280;66253;50.526;14.974;2023-04-06T00:04:41;99595.27;;;-2.57;74.55
77235;BME280;66253;50.526;14.974;2023-04-06T00:07:07;99595.41;;;-2.63;74.77
77235;BME280;66253;50.526;14.974;2023-04-06T00:09:33;99591.22;;;-2.67;75.09
77235;BME280;66253;50.526;14.974;2023-04-06T00:11:58;99588.69;;;-2.71;75.03
77235;BME280;66253;50.526;14.974;2023-04-06T00:14:24;99587.86;;;-2.73;75.08
77235;BME280;66253;50.526;14.974;2023-04-06T00:16:49;99590.19;;;-2.76;75.05
77235;BME280;66253;50.526;14.974;2023-04-06T00:19:15;99588.17;;;-2.78;74.98
77235;BME280;66253;50.526;14.974;2023-04-06T00:21:41;99582.65;;;-2.80;75.53
77235;BME280;66253;50.526;14.974;2023-04-06T00:24:07;99583.14;;;-2.82;75.36
77235;BME280;66253;50.526;14.974;2023-04-06T00:26:32;99579.63;;;-2.85;75.48
77235;BME280;66253;50.526;14.974;2023-04-06T00:28:58;99579.61;;;-2.87;75.42
77235;BME280;66253;50.526;14.974;2023-04-06T00:31:24;99575.77;;;-2.89;75.35
77235;BME280;66253;50.526;14.974;2023-04-06T00:33:50;99576.75;;;-2.92;75.17
77235;BME280;66253;50.526;14.974;2023-04-06T00:36:16;99574.56;;;-2.95;75.28
77235;BME280;66253;50.526;14.974;2023-04-06T00:38:41;99576.05;;;-2.98;75.53
77235;BME280;66253;50.526;14.974;2023-04-06T00:41:07;99568.86;;;-3.01;75.60
77235;BME280;66253;50.526;14.974;2023-04-06T00:43:33;99568.67;;;-3.03;75.56
77235;BME280;66253;50.526;14.974;2023-04-06T00:45:59;99566.83;;;-3.05;75.88
77235;BME280;66253;50.526;14.974;2023-04-06T00:48:25;99569.33;;;-3.08;75.97
77235;BME280;66253;50.526;14.974;2023-04-06T00:50:51;99566.46;;;-3.13;75.93
77235;BME280;66253;50.526;14.974;2023-04-06T00:53:16;99563.77;;;-3.18;75.51
77235;BME280;66253;50.526;14.974;2023-04-06T00:55:43;99567.10;;;-3.21;75.75
77235;BME280;66253;50.526;14.974;2023-04-06T00:58:08;99565.08;;;-3.23;76.14
77235;BME280;66253;50.526;14.974;2023-04-06T01:00:34;99564.41;;;-3.24;75.81
77235;BME280;66253;50.526;14.974;2023-04-06T01:03:00;99562.71;;;-3.26;75.71
77235;BME280;66253;50.526;14.974;2023-04-06T01:05:26;99566.71;;;-3.28;76.12
77235;BME280;66253;50.526;14.974;2023-04-06T01:07:52;99568.89;;;-3.31;76.39
77235;BME280;66253;50.526;14.974;2023-04-06T01:10:24;99566.52;;;-3.34;76.22
77235;BME280;66253;50.526;14.974;2023-04-06T01:12:51;99563.48;;;-3.38;76.28
77235;BME280;66253;50.526;14.974;2023-04-06T01:15:16;99563.13;;;-3.40;76.32
77235;BME280;66253;50.526;14.974;2023-04-06T01:17:42;99563.46;;;-3.43;75.93
77235;BME280;66253;50.526;14.974;2023-04-06T01:20:08;99559.10;;;-3.45;76.28
77235;BME280;66253;50.526;14.974;2023-04-06T01:22:34;99562.76;;;-3.49;76.19
77235;BME280;66253;50.526;14.974;2023-04-06T01:24:59;99561.73;;;-3.52;76.17
77235;BME280;66253;50.526;14.974;2023-04-06T01:27:25;99561.02;;;-3.57;76.13
77235;BME280;66253;50.526;14.974;2023-04-06T01:29:51;99561.01;;;-3.60;76.05
77235;BME280;66253;50.526;14.974;2023-04-06T01:32:17;99560.31;;;-3.64;76.25
77235;BME280;66253;50.526;14.974;2023-04-06T01:34:43;99559.14;;;-3.67;76.37
77235;BME280;66253;50.526;14.974;2023-04-06T01:37:09;99558.77;;;-3.68;76.56
77235;BME280;66253;50.526;14.974;2023-04-06T01:39:34;99558.77;;;-3.70;76.50
77235;BME280;66253;50.526;14.974;2023-04-06T01:42:00;99559.77;;;-3.72;76.84
77235;BME280;66253;50.526;14.974;2023-04-06T01:44:26;99562.42;;;-3.73;76.65
77235;BME280;66253;50.526;14.974;2023-04-06T01:46:51;99563.74;;;-3.74;77.08
77235;BME280;66253;50.526;14.974;2023-04-06T01:49:17;99564.07;;;-3.75;76.90
77235;BME280;66253;50.526;14.974;2023-04-06T01:51:43;99561.23;;;-3.77;76.98
77235;BME280;66253;50.526;14.974;2023-04-06T01:54:08;99555.36;;;-3.79;76.81
77235;BME280;66253;50.526;14.974;2023-04-06T01:56:34;99558.38;;;-3.79;76.86
77235;BME280;66253;50.526;14.974;2023-04-06T01:59:00;99562.21;;;-3.80;76.89
77235;BME280;66253;50.526;14.974;2023-04-06T02:01:26;99557.38;;;-3.81;77.35
77235;BME280;66253;50.526;14.974;2023-04-06T02:03:51;99556.21;;;-3.80;77.28
77235;BME280;66253;50.526;14.974;2023-04-06T02:06:17;99557.54;;;-3.80;77.12
77235;BME280;66253;50.526;14.974;2023-04-06T02:08:43;99559.04;;;-3.80;77.65
77235;BME280;66253;50.526;14.974;2023-04-06T02:11:09;99560.20;;;-3.80;77.36
77235;BME280;66253;50.526;14.974;2023-04-06T02:13:35;99558.70;;;-3.81;77.97
77235;BME280;66253;50.526;14.974;2023-04-06T02:16:01;99564.55;;;-3.79;77.88
77235;BME280;66253;50.526;14.974;2023-04-06T02:18:29;99559.04;;;-3.79;78.08
77235;BME280;66253;50.526;14.974;2023-04-06T02:20:55;99560.05;;;-3.78;78.30
77235;BME280;66253;50.526;14.974;2023-04-06T02:23:21;99556.53;;;-3.78;78.01
77235;BME280;66253;50.526;14.974;2023-04-06T02:25:47;99556.70;;;-3.80;77.39
77235;BME280;66253;50.526;14.974;2023-04-06T02:28:13;99554.83;;;-3.84;77.64
77235;BME280;66253;50.526;14.974;2023-04-06T02:30:39;99554.32;;;-3.87;77.38
77235;BME280;66253;50.526;14.974;2023-04-06T02:33:05;99553.79;;;-3.88;77.57
77235;BME280;66253;50.526;14.974;2023-04-06T02:35:31;99553.61;;;-3.91;77.61
77235;BME280;66253;50.526;14.974;2023-04-06T02:37:57;99557.77;;;-3.94;77.77
77235;BME280;66253;50.526;14.974;2023-04-06T02:40:23;99560.58;;;-3.96;77.72
77235;BME280;66253;50.526;14.974;2023-04-06T02:42:49;99562.89;;;-3.99;77.75
77235;BME280;66253;50.526;14.974;2023-04-06T02:45:15;99560.35;;;-4.03;77.54
77235;BME280;66253;50.526;14.974;2023-04-06T02:47:41;99557.83;;;-4.05;77.25
77235;BME280;66253;50.526;14.974;2023-04-06T02:50:08;99558.48;;;-4.07;77.25
77235;BME280;66253;50.526;14.974;2023-04-06T02:52:33;99564.81;;;-4.09;77.77
77235;BME280;66253;50.526;14.974;2023-04-06T02:54:59;99565.80;;;-4.10;77.89
77235;BME280;66253;50.526;14.974;2023-04-06T02:57:25;99570.30;;;-4.11;78.00
77235;BME280;66253;50.526;14.974;2023-04-06T02:59:50;99571.61;;;-4.11;78.07
77235;BME280;66253;50.526;14.974;2023-04-06T03:02:16;99573.11;;;-4.12;77.65
77235;BME280;66253;50.526;14.974;2023-04-06T03:04:42;99573.45;;;-4.13;77.90
77235;BME280;66253;50.526;14.974;2023-04-06T03:07:08;99571.95;;;-4.14;77.95
77235;BME280;66253;50.526;14.974;2023-04-06T03:09:36;99576.44;;;-4.14;78.20
77235;BME280;66253;50.526;14.974;2023-04-06T03:12:02;99575.60;;;-4.14;78.30
77235;BME280;66253;50.526;14.974;2023-04-06T03:14:28;99574.27;;;-4.15;78.11
77235;BME280;66253;50.526;14.974;2023-04-06T03:16:54;99576.77;;;-4.16;78.06
77235;BME280;66253;50.526;14.974;2023-04-06T03:19:19;99574.40;;;-4.17;78.12
77235;BME280;66253;50.526;14.974;2023-04-06T03:21:45;99576.73;;;-4.19;77.90
77235;BME280;66253;50.526;14.974;2023-04-06T03:24:11;99575.54;;;-4.22;78.24
77235;BME280;66253;50.526;14.974;2023-04-06T03:26:39;99572.66;;;-4.24;77.63
77235;BME280;66253;50.526;14.974;2023-04-06T03:29:05;99572.83;;;-4.26;77.85
77235;BME280;66253;50.526;14.974;2023-04-06T03:31:30;99573.65;;;-4.28;77.93
77235;BME280;66253;50.526;14.974;2023-04-06T03:33:57;99578.96;;;-4.30;77.96
77235;BME280;66253;50.526;14.974;2023-04-06T03:36:22;99578.42;;;-4.34;77.92
77235;BME280;66253;50.526;14.974;2023-04-06T03:38:48;99581.88;;;-4.37;77.76
77235;BME280;66253;50.526;14.974;2023-04-06T03:41:14;99587.01;;;-4.41;77.85
77235;BME280;66253;50.526;14.974;2023-04-06T03:43:40;99591.64;;;-4.46;77.61
77235;BME280;66253;50.526;14.974;2023-04-06T03:46:05;99591.60;;;-4.49;77.38
77235;BME280;66253;50.526;14.974;2023-04-06T03:48:31;99593.91;;;-4.52;77.54
77235;BME280;66253;50.526;14.974;2023-04-06T03:50:56;99594.72;;;-4.54;77.77
77235;BME280;66253;50.526;14.974;2023-04-06T03:53:22;99596.70;;;-4.56;78.08
77235;BME280;66253;50.526;14.974;2023-04-06T03:55:48;99602.52;;;-4.58;78.12
77235;BME280;66253;50.526;14.974;2023-04-06T03:58:14;99600.80;;;-4.61;77.57
77235;BME280;66253;50.526;14.974;2023-04-06T04:00:39;99604.79;;;-4.63;77.59
77235;BME280;66253;50.526;14.974;2023-04-06T04:03:05;99599.42;;;-4.66;77.62
77235;BME280;66253;50.526;14.974;2023-04-06T04:05:31;99595.89;;;-4.67;77.83
77235;BME280;66253;50.526;14.974;2023-04-06T04:07:57;99596.71;;;-4.69;77.73
77235;BME280;66253;50.526;14.974;2023-04-06T04:10:22;99599.05;;;-4.70;77.85
77235;BME280;66253;50.526;14.974;2023-04-06T04:12:48;99601.37;;;-4.70;77.84
77235;BME280;66253;50.526;14.974;2023-04-06T04:15:13;99599.20;;;-4.71;78.00
77235;BME280;66253;50.526;14.974;2023-04-06T04:17:39;99595.20;;;-4.70;78.38
77235;BME280;66253;50.526;14.974;2023-04-06T04:20:05;99597.35;;;-4.71;78.08
77235;BME280;66253;50.526;14.974;2023-04-06T04:22:31;99596.02;;;-4.70;78.32
77235;BME280;66253;50.526;14.974;2023-04-06T04:24:57;99600.02;;;-4.72;78.18
77235;BME280;66253;50.526;14.974;2023-04-06T04:27:23;99601.33;;;-4.73;78.07
77235;BME280;66253;50.526;14.974;2023-04-06T04:29:48;99602.64;;;-4.74;78.10
77235;BME280;66253;50.526;14.974;2023-04-06T04:32:15;99600.80;;;-4.75;78.19
77235;BME280;66253;50.526;14.974;2023-04-06T04:34:41;99599.80;;;-4.76;78.18
77235;BME280;66253;50.526;14.974;2023-04-06T04:37:07;99604.12;;;-4.77;77.64
77235;BME280;66253;50.526;14.974;2023-04-06T04:39:33;99604.30;;;-4.77;78.04
77235;BME280;66253;50.526;14.974;2023-04-06T04:41:58;99603.98;;;-4.76;77.99
77235;BME280;66253;50.526;14.974;2023-04-06T04:44:24;99604.30;;;-4.75;78.07
77235;BME280;66253;50.526;14.974;2023-04-06T04:46:50;99605.64;;;-4.74;77.96
77235;BME280;66253;50.526;14.974;2023-04-06T04:49:16;99604.30;;;-4.74;77.77
77235;BME280;66253;50.526;14.974;2023-04-06T04:51:42;99606.34;;;-4.73;77.76
77235;BME280;66253;50.526;14.974;2023-04-06T04:54:07;99604.69;;;-4.71;77.69
77235;BME280;66253;50.526;14.974;2023-04-06T04:56:33;99607.55;;;-4.68;77.67
77235;BME280;66253;50.526;14.974;2023-04-06T04:58:59;99606.92;;;-4.64;77.78
77235;BME280;66253;50.526;14.974;2023-04-06T05:01:25;99611.65;;;-4.60;77.86
77235;BME280;66253;50.526;14.974;2023-04-06T05:03:50;99610.50;;;-4.26;77.74
77235;BME280;66253;50.526;14.974;2023-04-06T05:06:16;99606.67;;;-3.19;76.70
77235;BME280;66253;50.526;14.974;2023-04-06T05:08:42;99606.91;;;-2.05;75.51
77235;BME280;66253;50.526;14.974;2023-04-06T05:11:09;99606.80;;;-0.93;73.86
77235;BME280;66253;50.526;14.974;2023-04-06T05:13:35;99601.52;;;0.16;72.06
77235;BME280;66253;50.526;14.974;2023-04-06T05:16:00;99598.84;;;1.20;69.94
77235;BME280;66253;50.526;14.974;2023-04-06T05:18:26;99599.55;;;2.17;68.81
77235;BME280;66253;50.526;14.974;2023-04-06T05:20:52;99594.41;;;3.16;67.19
77235;BME280;66253;50.526;14.974;2023-04-06T05:23:18;99592.17;;;4.12;65.59
77235;BME280;66253;50.526;14.974;2023-04-06T05:25:44;99587.91;;;5.00;63.92
77235;BME280;66253;50.526;14.974;2023-04-06T05:28:09;99586.48;;;5.85;62.04
77235;BME280;66253;50.526;14.974;2023-04-06T05:30:35;99585.03;;;6.73;60.25
77235;BME280;66253;50.526;14.974;2023-04-06T05:33:01;99584.88;;;7.57;58.49
77235;BME280;66253;50.526;14.974;2023-04-06T05:35:27;99583.88;;;8.39;56.35
77235;BME280;66253;50.526;14.974;2023-04-06T05:37:53;99583.90;;;9.15;54.24
77235;BME280;66253;50.526;14.974;2023-04-06T05:40:18;99585.23;;;9.91;53.07
77235;BME280;66253;50.526;14.974;2023-04-06T05:42:44;99589.61;;;10.66;51.17
77235;BME280;66253;50.526;14.974;2023-04-06T05:45:11;99585.89;;;11.35;49.45
77235;BME280;66253;50.526;14.974;2023-04-06T05:47:42;99580.64;;;11.97;47.26
77235;BME280;66253;50.526;14.974;2023-04-06T05:50:09;99579.56;;;12.49;46.04
77235;BME280;66253;50.526;14.974;2023-04-06T05:52:35;99579.70;;;13.04;45.34
77235;BME280;66253;50.526;14.974;2023-04-06T05:55:02;99578.80;;;13.56;43.74
77235;BME280;66253;50.526;14.974;2023-04-06T05:57:28;99576.37;;;14.08;42.74
77235;BME280;66253;50.526;14.974;2023-04-06T05:59:54;99576.52;;;14.51;41.48
77235;BME280;66253;50.526;14.974;2023-04-06T06:02:21;99577.73;;;14.84;39.89
77235;BME280;66253;50.526;14.974;2023-04-06T06:04:46;99575.17;;;15.01;39.42
77235;BME280;66253;50.526;14.974;2023-04-06T06:07:12;99576.83;;;14.40;39.46
77235;BME280;66253;50.526;14.974;2023-04-06T06:09:37;99577.20;;;13.40;39.92
77235;BME280;66253;50.526;14.974;2023-04-06T06:12:03;99579.81;;;12.51;40.32
77235;BME280;66253;50.526;14.974;2023-04-06T06:14:29;99585.92;;;11.56;40.31
77235;BME280;66253;50.526;14.974;2023-04-06T06:16:54;99591.41;;;10.77;41.50
77235;BME280;66253;50.526;14.974;2023-04-06T06:19:20;99585.95;;;10.40;41.59
77235;BME280;66253;50.526;14.974;2023-04-06T06:21:45;99587.51;;;10.70;42.22
77235;BME280;66253;50.526;14.974;2023-04-06T06:24:11;99583.98;;;11.67;41.70
77235;BME280;66253;50.526;14.974;2023-04-06T06:26:37;99576.96;;;12.55;40.75
77235;BME280;66253;50.526;14.974;2023-04-06T06:29:05;99575.48;;;13.51;39.82
77235;BME280;66253;50.526;14.974;2023-04-06T06:31:31;99572.67;;;14.49;38.51
77235;BME280;66253;50.526;14.974;2023-04-06T06:33:59;99567.72;;;15.30;37.74
77235;BME280;66253;50.526;14.974;2023-04-06T06:36:25;99566.54;;;15.95;37.13
77235;BME280;66253;50.526;14.974;2023-04-06T06:38:53;99560.42;;;16.82;36.53
77235;BME280;66253;50.526;14.974;2023-04-06T06:41:21;99558.69;;;17.66;34.84
77235;BME280;66253;50.526;14.974;2023-04-06T06:43:46;99558.38;;;18.40;34.21
77235;BME280;66253;50.526;14.974;2023-04-06T06:46:12;99558.96;;;19.08;33.00
77235;BME280;66253;50.526;14.974;2023-04-06T06:48:38;99549.36;;;19.70;32.11
77235;BME280;66253;50.526;14.974;2023-04-06T06:51:03;99548.39;;;20.28;31.45
77235;BME280;66253;50.526;14.974;2023-04-06T06:53:29;99546.92;;;20.83;31.04
77235;BME280;66253;50.526;14.974;2023-04-06T06:55:54;99545.73;;;21.42;30.36
77235;BME280;66253;50.526;14.974;2023-04-06T06:58:20;99546.19;;;21.98;29.51
77235;BME280;66253;50.526;14.974;2023-04-06T07:00:46;99548.92;;;22.53;28.69
77235;BME280;66253;50.526;14.974;2023-04-06T07:03:12;99542.05;;;23.00;27.79
77235;BME280;66253;50.526;14.974;2023-04-06T07:05:37;99541.80;;;23.36;27.89
77235;BME280;66253;50.526;14.974;2023-04-06T07:08:03;99544.63;;;23.45;26.78
77235;BME280;66253;50.526;14.974;2023-04-06T07:10:29;99543.70;;;22.91;26.63
77235;BME280;66253;50.526;14.974;2023-04-06T07:12:54;99545.76;;;21.90;27.10
77235;BME280;66253;50.526;14.974;2023-04-06T07:15:20;99549.20;;;20.43;27.79
77235;BME280;66253;50.526;14.974;2023-04-06T07:17:46;99555.13;;;19.12;28.11
77235;BME280;66253;50.526;14.974;2023-04-06T07:20:12;99555.81;;;18.17;29.14
77235;BME280;66253;50.526;14.974;2023-04-06T07:22:38;99555.15;;;17.78;29.72
77235;BME280;66253;50.526;14.974;2023-04-06T07:25:05;99557.07;;;17.74;29.90
77235;BME280;66253;50.526;14.974;2023-04-06T07:27:31;99557.53;;;17.63;30.06
77235;BME280;66253;50.526;14.974;2023-04-06T07:33:34;99562.59;;;15.58;32.09
77235;BME280;66253;50.526;14.974;2023-04-06T07:36:00;99567.95;;;14.71;32.80
77235;BME280;66253;50.526;14.974;2023-04-06T07:38:26;99567.70;;;13.98;33.16
77235;BME280;66253;50.526;14.974;2023-04-06T07:40:55;99565.67;;;13.35;34.08
77235;BME280;66253;50.526;14.974;2023-04-06T07:43:24;99564.64;;;12.78;34.45
77235;BME280;66253;50.526;14.974;2023-04-06T07:45:50;99565.74;;;12.30;35.06
77235;BME280;66253;50.526;14.974;2023-04-06T07:48:47;99567.83;;;11.87;35.76
77235;BME280;66253;50.526;14.974;2023-04-06T07:51:25;99565.61;;;11.43;35.92
77235;BME280;66253;50.526;14.974;2023-04-06T07:54:01;99569.44;;;11.13;36.47
77235;BME280;66253;50.526;14.974;2023-04-06T07:56:36;99567.05;;;10.83;37.51
77235;BME280;66253;50.526;14.974;2023-04-06T07:59:01;99565.85;;;10.63;38.36
77235;BME280;66253;50.526;14.974;2023-04-06T08:01:28;99565.67;;;10.46;38.74
77235;BME280;66253;50.526;14.974;2023-04-06T08:03:58;99560.55;;;10.28;39.28
77235;BME280;66253;50.526;14.974;2023-04-06T08:06:26;99560.41;;;10.13;38.96
77235;BME280;66253;50.526;14.974;2023-04-06T08:08:59;99555.84;;;10.02;39.88
77235;BME280;66253;50.526;14.974;2023-04-06T08:11:27;99561.58;;;9.93;39.98
77235;BME280;66253;50.526;14.974;2023-04-06T08:14:08;99561.49;;;9.84;40.35
77235;BME280;66253;50.526;14.974;2023-04-06T08:16:37;99556.35;;;9.77;40.68
77235;BME280;66253;50.526;14.974;2023-04-06T08:19:03;99555.80;;;9.71;40.74
77235;BME280;66253;50.526;14.974;2023-04-06T08:21:31;99554.04;;;9.61;41.07
77235;BME280;66253;50.526;14.974;2023-04-06T08:24:03;99551.97;;;9.54;41.33
77235;BME280;66253;50.526;14.974;2023-04-06T08:26:34;99552.73;;;9.52;41.26
77235;BME280;66253;50.526;14.974;2023-04-06T08:29:00;99549.01;;;9.52;41.37
77235;BME280;66253;50.526;14.974;2023-04-06T08:31:29;99548.64;;;9.56;41.80
77235;BME280;66253;50.526;14.974;2023-04-06T08:33:55;99546.66;;;9.61;41.51
77235;BME280;66253;50.526;14.974;2023-04-06T08:36:21;99542.38;;;9.70;41.49
77235;BME280;66253;50.526;14.974;2023-04-06T08:38:48;99544.15;;;9.72;41.20
77235;BME280;66253;50.526;14.974;2023-04-06T08:41:15;99536.54;;;9.70;41.42
77235;BME280;66253;50.526;14.974;2023-04-06T08:43:48;99536.07;;;9.76;41.54
77235;BME280;66253;50.526;14.974;2023-04-06T08:46:15;99530.27;;;9.84;40.64
77235;BME280;66253;50.526;14.974;2023-04-06T08:48:42;99530.81;;;9.86;40.17
77235;BME280;66253;50.526;14.974;2023-04-06T08:51:09;99525.13;;;9.88;40.19
77235;BME280;66253;50.526;14.974;2023-04-06T08:53:36;99527.63;;;9.93;40.43
77235;BME280;66253;50.526;14.974;2023-04-06T08:56:02;99525.61;;;10.02;40.28
77235;BME280;66253;50.526;14.974;2023-04-06T08:58:41;99527.14;;;10.13;40.51
77235;BME280;66253;50.526;14.974;2023-04-06T09:01:11;99532.14;;;10.23;38.74
77235;BME280;66253;50.526;14.974;2023-04-06T09:03:46;99523.15;;;10.18;38.53
77235;BME280;66253;50.526;14.974;2023-04-06T09:06:20;99521.88;;;10.20;39.65
77235;BME280;66253;50.526;14.974;2023-04-06T09:08:46;99521.13;;;10.28;39.68
77235;BME280;66253;50.526;14.974;2023-04-06T09:11:12;99516.52;;;10.35;38.92
77235;BME280;66253;50.526;14.974;2023-04-06T09:13:54;99513.67;;;10.44;38.85
77235;BME280;66253;50.526;14.974;2023-04-06T09:16:20;99515.11;;;10.53;36.78
77235;BME280;66253;50.526;14.974;2023-04-06T09:18:47;99504.05;;;10.55;36.75
77235;BME280;66253;50.526;14.974;2023-04-06T09:21:16;99511.57;;;10.66;36.09
77235;BME280;66253;50.526;14.974;2023-04-06T09:23:43;99511.06;;;10.65;35.35
77235;BME280;66253;50.526;14.974;2023-04-06T09:26:17;99503.67;;;10.66;34.48
77235;BME280;66253;50.526;14.974;2023-04-06T09:28:53;99506.21;;;10.70;34.07
77235;BME280;66253;50.526;14.974;2023-04-06T09:31:26;99505.23;;;10.69;33.69
77235;BME280;66253;50.526;14.974;2023-04-06T09:33:58;99502.91;;;10.77;33.74
77235;BME280;66253;50.526;14.974;2023-04-06T09:36:31;99502.75;;;10.84;33.66
77235;BME280;66253;50.526;14.974;2023-04-06T09:39:01;99499.50;;;10.94;33.97
77235;BME280;66253;50.526;14.974;2023-04-06T09:41:30;99490.52;;;11.05;34.64
77235;BME280;66253;50.526;14.974;2023-04-06T09:44:09;99493.42;;;11.21;34.41
77235;BME280;66253;50.526;14.974;2023-04-06T09:46:45;99492.02;;;11.35;33.12
77235;BME280;66253;50.526;14.974;2023-04-06T09:49:11;99490.45;;;11.41;32.77
77235;BME280;66253;50.526;14.974;2023-04-06T09:51:51;99490.00;;;11.46;33.12
77235;BME280;66253;50.526;14.974;2023-04-06T09:54:22;99495.16;;;11.52;32.75
77235;BME280;66253;50.526;14.974;2023-04-06T09:56:55;99494.71;;;11.44;32.10
77235;BME280;66253;50.526;14.974;2023-04-06T09:59:47;99492.22;;;11.31;31.83
77235;BME280;66253;50.526;14.974;2023-04-06T10:02:56;99485.21;;;11.18;31.41
77235;BME280;66253;50.526;14.974;2023-04-06T10:08:28;99476.76;;;11.25;31.25
77235;BME280;66253;50.526;14.974;2023-04-06T10:11:00;99479.98;;;11.16;31.78
77235;BME280;66253;50.526;14.974;2023-04-06T10:13:30;99476.27;;;11.16;32.89
77235;BME280;66253;50.526;14.974;2023-04-06T10:16:16;99478.09;;;11.20;33.71
77235;BME280;66253;50.526;14.974;2023-04-06T10:19:16;99479.72;;;11.18;33.38
77235;BME280;66253;50.526;14.974;2023-04-06T10:21:45;99478.61;;;11.11;32.60
77235;BME280;66253;50.526;14.974;2023-04-06T10:24:29;99479.39;;;10.99;32.00
77235;BME280;66253;50.526;14.974;2023-04-06T10:27:02;99482.27;;;10.83;31.37
77235;BME280;66253;50.526;14.974;2023-04-06T10:29:28;99483.60;;;10.61;31.46
77235;BME280;66253;50.526;14.974;2023-04-06T10:32:06;99478.46;;;10.35;30.78
77235;BME280;66253;50.526;14.974;2023-04-06T10:34:35;99483.25;;;10.24;32.00
77235;BME280;66253;50.526;14.974;2023-04-06T10:37:11;99481.23;;;10.20;31.88
77235;BME280;66253;50.526;14.974;2023-04-06T10:39:54;99474.35;;;10.24;33.01
77235;BME280;66253;50.526;14.974;2023-04-06T10:42:40;99471.54;;;10.30;32.62
77235;BME280;66253;50.526;14.974;2023-04-06T10:45:07;99470.04;;;10.29;31.72
77235;BME280;66253;50.526;14.974;2023-04-06T10:47:42;99469.29;;;10.34;33.11
77235;BME280;66253;50.526;14.974;2023-04-06T10:50:14;99469.54;;;10.46;32.99
77235;BME280;66253;50.526;14.974;2023-04-06T10:52:41;99465.52;;;10.58;32.11
77235;BME280;66253;50.526;14.974;2023-04-06T10:55:08;99461.02;;;10.68;32.77
77235;BME280;66253;50.526;14.974;2023-04-06T10:57:35;99463.35;;;10.82;32.35
77235;BME280;66253;50.526;14.974;2023-04-06T11:00:07;99456.98;;;10.87;31.49
77235;BME280;66253;50.526;14.974;2023-04-06T11:02:35;99458.50;;;10.74;31.19
77235;BME280;66253;50.526;14.974;2023-04-06T11:05:01;99461.18;;;10.59;31.26
77235;BME280;66253;50.526;14.974;2023-04-06T11:07:35;99456.13;;;10.34;30.64
77235;BME280;66253;50.526;14.974;2023-04-06T11:10:29;99456.04;;;10.19;31.59
77235;BME280;66253;50.526;14.974;2023-04-06T11:13:00;99450.95;;;10.15;33.12
77235;BME280;66253;50.526;14.974;2023-04-06T11:15:34;99451.36;;;10.23;32.58
77235;BME280;66253;50.526;14.974;2023-04-06T11:18:20;99449.27;;;10.31;31.82
77235;BME280;66253;50.526;14.974;2023-04-06T11:20:55;99446.56;;;10.37;32.31
77235;BME280;66253;50.526;14.974;2023-04-06T11:23:25;99440.98;;;10.53;32.28
77235;BME280;66253;50.526;14.974;2023-04-06T11:26:13;99433.54;;;10.74;32.72
77235;BME280;66253;50.526;14.974;2023-04-06T11:28:45;99433.84;;;10.94;32.22
77235;BME280;66253;50.526;14.974;2023-04-06T11:31:11;99433.85;;;11.13;32.71
77235;BME280;66253;50.526;14.974;2023-04-06T11:33:38;99429.66;;;11.30;31.72
77235;BME280;66253;50.526;14.974;2023-04-06T11:36:05;99418.52;;;11.43;31.23
77235;BME280;66253;50.526;14.974;2023-04-06T11:38:41;99422.94;;;11.56;30.52
77235;BME280;66253;50.526;14.974;2023-04-06T11:41:16;99420.01;;;11.53;29.78
77235;BME280;66253;50.526;14.974;2023-04-06T11:43:54;99415.46;;;11.42;29.85
77235;BME280;66253;50.526;14.974;2023-04-06T11:49:15;99419.04;;;11.40;30.69
77235;BME280;66253;50.526;14.974;2023-04-06T11:51:41;99417.66;;;11.27;30.06
77235;BME280;66253;50.526;14.974;2023-04-06T11:54:10;99416.17;;;11.11;30.59
77235;BME280;66253;50.526;14.974;2023-04-06T11:56:36;99420.28;;;10.86;30.62
77235;BME280;66253;50.526;14.974;2023-04-06T11:59:03;99416.38;;;10.66;31.56
77235;BME280;66253;50.526;14.974;2023-04-06T12:01:29;99417.19;;;10.54;31.78
77235;BME280;66253;50.526;14.974;2023-04-06T12:03:56;99421.19;;;10.43;31.81
77235;BME280;66253;50.526;14.974;2023-04-06T12:06:22;99416.10;;;10.39;32.33
77235;BME280;66253;50.526;14.974;2023-04-06T12:08:51;99416.63;;;10.38;32.15
77235;BME280;66253;50.526;14.974;2023-04-06T12:11:26;99415.41;;;10.32;31.65
77235;BME280;66253;50.526;14.974;2023-04-06T12:13:55;99415.30;;;10.24;31.48
77235;BME280;66253;50.526;14.974;2023-04-06T12:16:20;99410.71;;;10.20;32.23
77235;BME280;66253;50.526;14.974;2023-04-06T12:18:55;99407.02;;;10.22;32.88
77235;BME280;66253;50.526;14.974;2023-04-06T12:21:24;99405.48;;;10.26;32.25
77235;BME280;66253;50.526;14.974;2023-04-06T12:23:59;99403.84;;;10.24;30.76
77235;BME280;66253;50.526;14.974;2023-04-06T12:26:25;99398.96;;;10.23;30.91
77235;BME280;66253;50.526;14.974;2023-04-06T12:28:51;99398.17;;;10.25;31.63
77235;BME280;66253;50.526;14.974;2023-04-06T12:31:20;99397.55;;;10.31;32.74
77235;BME280;66253;50.526;14.974;2023-04-06T12:33:47;99398.54;;;10.39;32.81
77235;BME280;66253;50.526;14.974;2023-04-06T12:36:14;99393.91;;;10.45;31.83
77235;BME280;66253;50.526;14.974;2023-04-06T12:38:49;99389.61;;;10.49;31.30
77235;BME280;66253;50.526;14.974;2023-04-06T12:41:22;99386.03;;;10.46;31.50
77235;BME280;66253;50.526;14.974;2023-04-06T12:43:50;99382.06;;;10.37;31.50
77235;BME280;66253;50.526;14.974;2023-04-06T12:46:16;99388.12;;;10.21;31.31
77235;BME280;66253;50.526;14.974;2023-04-06T12:48:42;99383.02;;;10.11;31.74
77235;BME280;66253;50.526;14.974;2023-04-06T12:51:21;99380.88;;;10.09;31.79
77235;BME280;66253;50.526;14.974;2023-04-06T12:53:52;99378.55;;;10.15;32.11
77235;BME280;66253;50.526;14.974;2023-04-06T12:56:17;99370.40;;;10.25;32.17
77235;BME280;66253;50.526;14.974;2023-04-06T13:01:25;99363.67;;;10.46;32.91
77235;BME280;66253;50.526;14.974;2023-04-06T13:03:56;99366.58;;;10.52;32.00
77235;BME280;66253;50.526;14.974;2023-04-06T13:06:33;99364.09;;;10.54;32.90
77235;BME280;66253;50.526;14.974;2023-04-06T13:09:02;99364.51;;;10.55;32.80